00:42
Airports
History
Links
Donate
Help keep this website running!
PayPal
Bitcoin
This page is community maintained. The information is intended for PC simulator navigation or reference.
Always use approved charts for navigation.
EDWH
Oldenburg Hatten
Oldenburg Hatten (EDWH)
Hatten, Niedersachsen, Germany (26209)
(C)
Lat/Lng:53° 4' 7.15" N / 8° 18' 45.19" E
53.068652 / 8.312554
Elevation:26'ft / 8mMSL
ID / ICAO:EDWH
Runways:1
Longest:6-24
Grass 773m / 2,534ft
Controlled:Yes
Nearby Weather00:20 GMT 2017-09-25
Nearby weather at EDDW, Bremen located 19.9 nautical miles from EDWH
Altimeter: 30.21
Visibility: 0.0 statute miles
Wind: 4 knots (from 080°)
Temp: 13°c / 55°f
Humidity: 100.0%

METAR: EDDW 250020Z AUTO 08004KT 0050 R09/0400V1000D // FEW003/// 13/13 Q1023

(Powered by phpweather)
Airport Radio Frequencies
Tower: 118.17
Nearby VORs <50NM
Nearby NDBs
Runway 6 / 24
Dimensions:772.5 x 29.9m 2534' x 98'ft
Surface:Grass
Runway 6 [A]Runway 24 [B]
Heading:060°TH 240°TH
Lat:
Lng:
53° 4' 0.88"N
8° 18' 26.99"E
53° 4' 13.41"N
8° 19' 3.4"E
User Notes and Comments
53° 4' 7.15" N / 8° 18' 45.19" E
Distance To
Airport ID:
Nearby Airports
(C) Ganderkesee Atlas Airfield 8.3 NM
EDWQ ESE 104°
(C) Varrelbusch 15.8 NM
EDWU SW 225°
(C) Bremen 19.9 NM
EDDW ( WX ) E 94°
(C) Westerstede-Felde 21.9 NM
EDWX NW 313°
(C) Barssel 22.5 NM
EDXL WNW 287°
4 Huettenbusch 30.4 NM
EDXU ENE 60°
(C) WILHELMSHAVEN MARIENSIEL 31.9 NM
EDWI NNW 340°
VFR Chart
Flight Planning at SkyVector.com